createdAt,value
2022-11-12T00:00:54.722Z,8.00
2022-11-12T00:03:21.682Z,7.90
2022-11-12T00:05:49.450Z,7.80
2022-11-12T00:08:16.489Z,7.80
2022-11-12T00:10:43.326Z,7.80
2022-11-12T00:13:09.880Z,7.80
2022-11-12T00:15:36.509Z,7.80
2022-11-12T00:18:03.371Z,7.80
2022-11-12T00:20:29.971Z,7.70
2022-11-12T00:22:56.558Z,7.80
2022-11-12T00:25:23.181Z,7.80
2022-11-12T00:27:49.772Z,7.80
2022-11-12T00:30:16.681Z,7.70
2022-11-12T00:32:43.430Z,7.70
2022-11-12T00:35:13.701Z,7.60
2022-11-12T00:37:40.933Z,7.70
2022-11-12T00:40:08.458Z,7.60
2022-11-12T00:42:35.100Z,7.60
2022-11-12T00:45:01.876Z,7.50
2022-11-12T00:47:28.540Z,7.50
2022-11-12T00:49:55.266Z,7.50
2022-11-12T00:52:21.932Z,7.50
2022-11-12T00:54:49.121Z,7.50
2022-11-12T00:57:15.738Z,7.60
2022-11-12T00:59:42.291Z,7.60
2022-11-12T01:02:08.874Z,7.60
2022-11-12T01:04:35.516Z,7.50
2022-11-12T01:07:02.173Z,7.50
2022-11-12T01:09:28.842Z,7.40
2022-11-12T01:11:55.466Z,7.40
2022-11-12T01:14:22.066Z,7.30
2022-11-12T01:16:48.684Z,7.20
2022-11-12T01:19:15.383Z,7.20
2022-11-12T01:21:43.876Z,7.20
2022-11-12T01:24:11.277Z,7.20
2022-11-12T01:26:38.220Z,7.30
2022-11-12T01:29:05.383Z,7.30
2022-11-12T01:31:37.710Z,7.30
2022-11-12T01:34:09.034Z,7.30
2022-11-12T01:36:39.829Z,7.30
2022-11-12T01:39:08.189Z,7.30
2022-11-12T01:41:36.996Z,7.20
2022-11-12T01:44:12.412Z,7.20
2022-11-12T01:47:06.679Z,7.30
2022-11-12T01:49:48.819Z,7.30
2022-11-12T01:52:29.057Z,7.20
2022-11-12T01:55:02.548Z,7.20
2022-11-12T01:57:36.904Z,7.20
2022-11-12T02:00:08.308Z,7.10
2022-11-12T02:02:36.838Z,7.20
2022-11-12T02:05:07.037Z,7.20
2022-11-12T02:07:35.739Z,7.10
2022-11-12T02:10:04.131Z,7.10
2022-11-12T02:12:49.775Z,7.00
2022-11-12T02:15:16.467Z,7.00
2022-11-12T02:17:43.056Z,7.00
2022-11-12T02:20:11.928Z,7.00
2022-11-12T02:22:38.657Z,6.90
2022-11-12T02:25:06.110Z,6.90
2022-11-12T02:27:33.022Z,7.00
2022-11-12T02:29:59.598Z,7.00
2022-11-12T02:32:26.165Z,6.90
2022-11-12T02:34:52.747Z,6.90
2022-11-12T02:37:19.313Z,6.90
2022-11-12T02:39:45.876Z,6.90
2022-11-12T02:42:12.433Z,6.90
2022-11-12T02:44:39.138Z,6.80
2022-11-12T02:47:05.761Z,6.90
2022-11-12T02:49:32.460Z,6.80
2022-11-12T02:51:59.117Z,6.80
2022-11-12T02:54:25.877Z,6.80
2022-11-12T02:56:52.426Z,6.80
2022-11-12T02:59:19.020Z,6.80
2022-11-12T03:01:45.665Z,6.80
2022-11-12T03:04:12.216Z,6.70
2022-11-12T03:06:39.510Z,6.70
2022-11-12T03:09:06.108Z,6.70
2022-11-12T03:11:32.704Z,6.70
2022-11-12T03:13:59.263Z,6.70
2022-11-12T03:16:25.819Z,6.60
2022-11-12T03:18:52.407Z,6.60
2022-11-12T03:21:19.004Z,6.60
2022-11-12T03:23:45.547Z,6.60
2022-11-12T03:26:12.096Z,6.60
2022-11-12T03:28:38.664Z,6.60
2022-11-12T03:31:05.497Z,6.60
2022-11-12T03:33:32.061Z,6.60
2022-11-12T03:35:58.630Z,6.60
2022-11-12T03:38:25.570Z,6.50
2022-11-12T03:40:52.389Z,6.50
2022-11-12T03:43:18.972Z,6.50
2022-11-12T03:45:45.529Z,6.50
2022-11-12T03:48:12.086Z,6.50
2022-11-12T03:50:38.643Z,6.50
2022-11-12T03:53:05.258Z,6.50
2022-11-12T03:55:31.959Z,6.50
2022-11-12T03:57:59.079Z,6.50
2022-11-12T04:00:27.622Z,6.50
2022-11-12T04:02:54.510Z,6.50
2022-11-12T04:05:40.046Z,6.40
2022-11-12T04:08:36.680Z,6.40
2022-11-12T04:11:12.806Z,6.40
2022-11-12T04:13:45.548Z,6.40
2022-11-12T04:16:33.123Z,6.40
2022-11-12T04:19:19.954Z,6.30
2022-11-12T04:21:55.177Z,6.30
2022-11-12T04:24:40.607Z,6.20
2022-11-12T04:27:09.422Z,6.10
2022-11-12T04:29:54.669Z,6.00
2022-11-12T04:32:22.044Z,5.90
2022-11-12T04:34:48.728Z,5.90
2022-11-12T04:37:17.838Z,5.90
2022-11-12T04:39:47.629Z,5.90
2022-11-12T04:42:33.181Z,5.90
2022-11-12T04:44:59.788Z,6.00
2022-11-12T04:47:30.979Z,6.00
2022-11-12T04:49:58.001Z,6.00
2022-11-12T04:52:25.442Z,6.00
2022-11-12T04:54:52.796Z,6.10
2022-11-12T04:57:19.982Z,6.10
2022-11-12T04:59:47.131Z,6.00
2022-11-12T05:02:15.148Z,6.00
2022-11-12T05:04:41.805Z,6.00
2022-11-12T05:07:08.649Z,6.00
2022-11-12T05:09:35.657Z,6.00
2022-11-12T05:12:02.350Z,6.00
2022-11-12T05:14:29.007Z,6.00
2022-11-12T05:16:55.613Z,5.80
2022-11-12T05:19:22.186Z,5.80
2022-11-12T05:22:07.499Z,5.70
2022-11-12T05:24:42.567Z,5.70
2022-11-12T05:27:20.952Z,5.80
2022-11-12T05:29:47.534Z,5.80
2022-11-12T05:32:16.146Z,5.80
2022-11-12T05:34:42.767Z,5.80
2022-11-12T05:37:10.674Z,5.80
2022-11-12T05:39:37.345Z,5.80
2022-11-12T05:42:13.543Z,5.80
2022-11-12T05:44:41.112Z,5.80
2022-11-12T05:47:07.786Z,5.80
2022-11-12T05:49:34.366Z,5.80
2022-11-12T05:52:00.950Z,5.80
2022-11-12T05:54:27.566Z,5.80
2022-11-12T05:56:54.314Z,5.80
2022-11-12T05:59:20.968Z,5.80
2022-11-12T06:01:47.785Z,5.80
2022-11-12T06:04:15.907Z,5.80
2022-11-12T06:06:43.454Z,5.80
2022-11-12T06:09:10.546Z,5.90
2022-11-12T06:11:37.870Z,5.80
2022-11-12T06:14:05.079Z,5.80
2022-11-12T06:16:33.037Z,5.80
2022-11-12T06:19:00.103Z,5.80
2022-11-12T06:21:27.715Z,5.70
2022-11-12T06:24:00.028Z,5.70
2022-11-12T06:26:28.746Z,5.70
2022-11-12T06:28:55.946Z,5.70
2022-11-12T06:31:22.998Z,5.70
2022-11-12T06:33:50.244Z,5.70
2022-11-12T06:36:20.069Z,5.60
2022-11-12T06:38:46.954Z,5.60
2022-11-12T06:41:14.748Z,5.60
2022-11-12T06:43:42.187Z,5.60
2022-11-12T06:46:12.753Z,5.60
2022-11-12T06:48:39.498Z,5.60
2022-11-12T06:51:17.957Z,5.60
2022-11-12T06:53:44.835Z,5.60
2022-11-12T06:56:12.508Z,5.60
2022-11-12T06:58:39.159Z,5.50
2022-11-12T07:01:12.862Z,5.50
2022-11-12T07:03:40.502Z,5.60
2022-11-12T07:06:13.049Z,5.60
2022-11-12T07:08:40.629Z,5.60
2022-11-12T07:11:07.698Z,5.60
2022-11-12T07:13:35.838Z,5.50
2022-11-12T07:16:04.079Z,5.50
2022-11-12T07:18:30.790Z,5.50
2022-11-12T07:21:10.420Z,5.50
2022-11-12T07:23:37.504Z,5.50
2022-11-12T07:26:12.874Z,5.50
2022-11-12T07:28:39.661Z,5.60
2022-11-12T07:31:09.932Z,5.60
2022-11-12T07:33:36.827Z,5.70
2022-11-12T07:36:08.463Z,5.70
2022-11-12T07:38:37.232Z,5.80
2022-11-12T07:41:09.975Z,5.80
2022-11-12T07:43:38.168Z,5.90
2022-11-12T07:46:10.786Z,5.80
2022-11-12T07:48:38.566Z,5.90
2022-11-12T07:51:07.991Z,5.90
2022-11-12T07:53:34.927Z,5.90
2022-11-12T07:56:04.437Z,5.90
2022-11-12T07:58:33.012Z,6.00
2022-11-12T08:01:08.578Z,6.00
2022-11-12T08:03:35.292Z,6.00
2022-11-12T08:06:02.040Z,6.00
2022-11-12T08:08:28.941Z,5.90
2022-11-12T08:10:57.038Z,6.00
2022-11-12T08:13:24.098Z,6.10
2022-11-12T08:15:52.323Z,6.20
2022-11-12T08:18:19.169Z,6.20
2022-11-12T08:20:45.890Z,6.30
2022-11-12T08:23:12.464Z,6.30
2022-11-12T08:25:39.109Z,6.30
2022-11-12T08:28:05.718Z,6.30
2022-11-12T08:30:32.811Z,6.30
2022-11-12T08:33:01.990Z,6.30
2022-11-12T08:35:29.726Z,6.40
2022-11-12T08:38:01.156Z,6.40
2022-11-12T08:40:29.607Z,6.40
2022-11-12T08:43:01.070Z,6.40
2022-11-12T08:45:29.129Z,6.50
2022-11-12T08:48:00.410Z,6.50
2022-11-12T08:50:27.673Z,6.50
2022-11-12T08:52:58.779Z,6.60
2022-11-12T08:55:25.348Z,6.60
2022-11-12T08:57:51.911Z,6.60
2022-11-12T09:00:18.655Z,6.70
2022-11-12T09:02:45.320Z,6.70
2022-11-12T09:05:11.938Z,6.80
2022-11-12T09:07:53.785Z,6.80
2022-11-12T09:10:20.443Z,6.70
2022-11-12T09:12:51.716Z,6.80
2022-11-12T09:18:08.611Z,6.90
2022-11-12T09:20:35.257Z,6.90
2022-11-12T09:23:11.323Z,6.90
2022-11-12T09:25:38.261Z,6.90
2022-11-12T09:28:13.568Z,7.00
2022-11-12T09:30:46.521Z,7.00
2022-11-12T09:33:14.948Z,7.10
2022-11-12T09:35:41.594Z,7.10
2022-11-12T09:38:08.200Z,8.00
2022-11-12T09:40:53.652Z,7.70
2022-11-12T09:43:37.236Z,7.70
2022-11-12T09:46:27.980Z,7.70
2022-11-12T09:49:23.757Z,7.70
2022-11-12T09:51:53.918Z,7.60
2022-11-12T09:54:25.998Z,7.60
2022-11-12T09:56:53.844Z,7.70
2022-11-12T09:59:22.367Z,7.70
2022-11-12T10:02:25.984Z,7.70
2022-11-12T10:04:58.481Z,7.80
2022-11-12T10:07:41.988Z,7.70
2022-11-12T10:10:16.037Z,7.70
2022-11-12T10:12:42.660Z,7.70
2022-11-12T10:15:51.698Z,7.80
2022-11-12T10:18:27.407Z,7.80
2022-11-12T10:21:27.786Z,7.90
2022-11-12T10:23:54.627Z,7.90
2022-11-12T10:26:23.503Z,7.90
2022-11-12T10:29:02.917Z,8.00
2022-11-12T10:31:29.506Z,8.00
2022-11-12T10:34:09.534Z,8.10
2022-11-12T10:36:38.289Z,8.10
2022-11-12T10:39:05.007Z,8.10
2022-11-12T10:41:33.934Z,8.20
2022-11-12T10:44:02.842Z,8.20
2022-11-12T10:46:33.647Z,8.30
2022-11-12T10:49:28.108Z,8.30
2022-11-12T10:51:57.691Z,8.30
2022-11-12T10:54:27.045Z,8.40
2022-11-12T10:56:55.723Z,8.40
2022-11-12T10:59:26.011Z,8.50
2022-11-12T11:02:00.988Z,8.50
2022-11-12T11:04:37.920Z,8.60
2022-11-12T11:07:25.132Z,8.50
2022-11-12T11:10:00.354Z,8.60
2022-11-12T11:12:29.587Z,8.70
2022-11-12T11:15:14.278Z,8.60
2022-11-12T11:17:40.871Z,8.70
2022-11-12T11:20:24.557Z,8.70
2022-11-12T11:23:04.477Z,8.70
2022-11-12T11:25:35.585Z,8.70
2022-11-12T11:28:08.383Z,8.70
2022-11-12T11:30:49.275Z,8.80
2022-11-12T11:33:41.946Z,8.80
2022-11-12T11:36:20.514Z,8.80
2022-11-12T11:39:16.761Z,8.80
2022-11-12T11:42:03.662Z,8.90
2022-11-12T11:44:46.581Z,8.90
2022-11-12T11:48:00.653Z,8.90
2022-11-12T11:50:38.353Z,8.90
2022-11-12T11:53:32.772Z,8.90
2022-11-12T11:56:03.828Z,8.90
2022-11-12T11:58:46.267Z,9.00
2022-11-12T12:01:37.692Z,9.00
2022-11-12T12:04:36.118Z,9.00
2022-11-12T12:07:11.878Z,9.00
2022-11-12T12:09:50.241Z,9.10
2022-11-12T12:12:49.051Z,9.10
2022-11-12T12:15:27.847Z,9.00
2022-11-12T12:18:13.114Z,9.10
2022-11-12T12:20:45.800Z,9.10
2022-11-12T12:23:48.503Z,9.10
2022-11-12T12:26:23.277Z,9.10
2022-11-12T12:29:01.524Z,9.10
2022-11-12T12:31:35.288Z,9.10
2022-11-12T12:34:29.559Z,9.10
2022-11-12T12:37:24.899Z,9.20
2022-11-12T12:40:02.109Z,9.30
2022-11-12T12:42:48.599Z,9.20
2022-11-12T12:45:46.735Z,9.30
2022-11-12T12:48:25.436Z,9.20
2022-11-12T12:50:53.635Z,9.30
2022-11-12T12:53:29.921Z,9.30
2022-11-12T12:55:59.481Z,9.30
2022-11-12T12:58:41.122Z,9.40
2022-11-12T13:01:22.925Z,9.40
2022-11-12T13:04:00.096Z,9.40
2022-11-12T13:06:34.902Z,9.40
2022-11-12T13:09:24.566Z,9.50
2022-11-12T13:12:04.583Z,9.50
2022-11-12T13:14:35.057Z,9.50
2022-11-12T13:17:16.707Z,9.50
2022-11-12T13:19:58.562Z,9.50
2022-11-12T13:22:25.410Z,9.50
2022-11-12T13:25:13.437Z,9.50
2022-11-12T13:27:40.108Z,9.50
2022-11-12T13:30:27.838Z,9.50
2022-11-12T13:32:59.681Z,9.50
2022-11-12T13:35:34.792Z,9.50
2022-11-12T13:38:13.172Z,9.50
2022-11-12T13:40:52.623Z,9.60
2022-11-12T13:43:49.879Z,9.60
2022-11-12T13:46:31.243Z,9.60
2022-11-12T13:49:07.488Z,9.60
2022-11-12T13:51:34.114Z,9.60
2022-11-12T13:54:02.449Z,9.60
2022-11-12T13:56:34.736Z,9.60
2022-11-12T13:59:15.694Z,9.60
2022-11-12T14:01:42.998Z,9.60
2022-11-12T14:04:18.878Z,9.60
2022-11-12T14:06:54.562Z,9.50
2022-11-12T14:09:38.814Z,9.60
2022-11-12T14:12:18.499Z,9.50
2022-11-12T14:15:08.253Z,9.50
2022-11-12T14:17:43.365Z,9.60
2022-11-12T14:20:36.211Z,9.60
2022-11-12T14:23:25.119Z,9.60
2022-11-12T14:25:56.751Z,9.60
2022-11-12T14:28:30.948Z,9.60
2022-11-12T14:30:59.389Z,9.60
2022-11-12T14:33:27.864Z,9.60
2022-11-12T14:36:06.453Z,9.60
2022-11-12T14:38:38.211Z,9.60
2022-11-12T14:41:09.988Z,9.60
2022-11-12T14:43:45.486Z,9.60
2022-11-12T14:46:26.354Z,9.60
2022-11-12T14:48:58.952Z,9.60
2022-11-12T14:51:27.993Z,9.60
2022-11-12T14:53:58.635Z,9.60
2022-11-12T14:56:35.559Z,9.60
2022-11-12T14:59:03.900Z,9.60
2022-11-12T15:04:25.772Z,9.50
2022-11-12T15:06:57.483Z,9.50
2022-11-12T15:09:35.658Z,9.50
2022-11-12T15:12:11.256Z,9.50
2022-11-12T15:14:38.021Z,9.50
2022-11-12T15:17:05.920Z,9.50
2022-11-12T15:19:32.976Z,9.50
2022-11-12T15:22:02.256Z,9.50
2022-11-12T15:24:32.949Z,9.50
2022-11-12T15:27:02.321Z,9.50
2022-11-12T15:29:34.476Z,9.50
2022-11-12T15:32:13.889Z,9.50
2022-11-12T15:34:40.759Z,9.50
2022-11-12T15:37:19.724Z,9.50
2022-11-12T15:39:54.044Z,9.40
2022-11-12T15:42:38.220Z,9.40
2022-11-12T15:45:14.606Z,9.40
2022-11-12T15:47:41.347Z,9.40
2022-11-12T15:50:18.185Z,9.40
2022-11-12T15:52:45.251Z,9.40
2022-11-12T15:55:13.346Z,9.40
2022-11-12T15:57:48.903Z,9.40
2022-11-12T16:00:21.208Z,9.30
2022-11-12T16:03:00.250Z,9.40
2022-11-12T16:05:26.924Z,9.40
2022-11-12T16:07:53.589Z,9.40
2022-11-12T16:10:20.201Z,9.40
2022-11-12T16:12:47.953Z,9.40
2022-11-12T16:15:20.531Z,9.40
2022-11-12T16:17:48.021Z,9.40
2022-11-12T16:20:18.499Z,9.40
2022-11-12T16:22:45.170Z,9.40
2022-11-12T16:25:11.732Z,9.40
2022-11-12T16:27:39.942Z,9.40
2022-11-12T16:30:18.758Z,9.40
2022-11-12T16:32:47.402Z,9.40
2022-11-12T16:35:14.668Z,9.40
2022-11-12T16:37:43.040Z,9.40
2022-11-12T16:40:18.281Z,9.40
2022-11-12T16:42:47.627Z,9.40
2022-11-12T16:45:23.522Z,9.40
2022-11-12T16:47:52.333Z,9.40
2022-11-12T16:50:24.597Z,9.40
2022-11-12T16:52:52.816Z,9.40
2022-11-12T16:55:20.367Z,9.40
2022-11-12T16:57:47.043Z,9.40
2022-11-12T17:00:16.489Z,9.40
2022-11-12T17:02:46.263Z,9.40
2022-11-12T17:05:25.359Z,9.30
2022-11-12T17:07:56.748Z,9.30
2022-11-12T17:10:24.164Z,9.30
2022-11-12T17:12:51.725Z,9.30
2022-11-12T17:15:18.731Z,9.30
2022-11-12T17:17:45.541Z,9.30
2022-11-12T17:20:12.139Z,9.40
2022-11-12T17:22:38.820Z,9.40
2022-11-12T17:25:06.805Z,9.30
2022-11-12T17:27:33.447Z,9.30
2022-11-12T17:30:00.075Z,9.30
2022-11-12T17:32:27.068Z,9.30
2022-11-12T17:34:53.976Z,9.30
2022-11-12T17:37:20.563Z,9.30
2022-11-12T17:39:47.150Z,9.30
2022-11-12T17:42:13.784Z,9.30
2022-11-12T17:44:40.491Z,9.30
2022-11-12T17:47:07.105Z,9.30
2022-11-12T17:49:33.673Z,9.20
2022-11-12T17:52:00.262Z,9.20
2022-11-12T17:54:26.835Z,9.20
2022-11-12T17:56:53.417Z,9.20
2022-11-12T17:59:20.298Z,9.20
2022-11-12T18:01:46.894Z,9.20
2022-11-12T18:04:13.468Z,9.30
2022-11-12T18:06:40.212Z,9.20
2022-11-12T18:09:11.782Z,9.20
2022-11-12T18:11:45.801Z,9.20
2022-11-12T18:14:12.756Z,9.20
2022-11-12T18:16:39.580Z,9.20
2022-11-12T18:19:10.593Z,9.20
2022-11-12T18:21:39.172Z,9.20
2022-11-12T18:24:06.556Z,9.10
2022-11-12T18:26:33.497Z,9.10
2022-11-12T18:29:00.485Z,9.10
2022-11-12T18:31:28.105Z,9.10
2022-11-12T18:33:55.486Z,9.10
2022-11-12T18:36:24.732Z,9.10
2022-11-12T19:05:21.988Z,8.90
2022-11-12T19:07:48.611Z,8.90
2022-11-12T19:10:15.428Z,8.90
2022-11-12T19:12:42.480Z,8.90
2022-11-12T19:15:09.665Z,8.90
2022-11-12T19:17:36.253Z,8.90
2022-11-12T19:20:03.197Z,8.90
2022-11-12T19:22:30.626Z,8.90
2022-11-12T19:24:57.296Z,8.80
2022-11-12T19:27:23.964Z,8.90
2022-11-12T19:29:50.607Z,8.90
2022-11-12T19:32:17.183Z,8.80
2022-11-12T19:34:43.820Z,8.80
2022-11-12T19:37:32.560Z,8.90
2022-11-12T19:39:56.998Z,8.90
2022-11-12T19:42:23.702Z,8.90
2022-11-12T19:44:50.608Z,8.90
2022-11-12T19:47:17.156Z,8.90
2022-11-12T19:49:43.747Z,8.80
2022-11-12T19:52:10.348Z,8.80
2022-11-12T19:54:36.973Z,8.80
2022-11-12T19:57:03.629Z,8.80
2022-11-12T19:59:30.215Z,8.70
2022-11-12T20:01:56.782Z,8.70
2022-11-12T20:04:24.479Z,8.80
2022-11-12T20:06:51.228Z,8.80
2022-11-12T20:09:18.079Z,8.80
2022-11-12T20:11:45.061Z,8.80
2022-11-12T20:14:11.629Z,8.80
2022-11-12T20:16:39.085Z,8.80
2022-11-12T20:19:05.834Z,8.70
2022-11-12T20:21:32.457Z,8.80
2022-11-12T20:23:59.198Z,8.80
2022-11-12T20:26:26.697Z,8.80
2022-11-12T20:28:53.662Z,8.80
2022-11-12T20:31:21.131Z,8.80
2022-11-12T20:33:49.619Z,8.80
2022-11-12T20:36:19.498Z,8.80
2022-11-12T20:38:47.388Z,8.80
2022-11-12T20:41:22.348Z,8.80
2022-11-12T20:43:57.020Z,8.80
2022-11-12T20:46:24.999Z,8.70
2022-11-12T20:48:53.865Z,8.70
2022-11-12T20:51:25.308Z,8.70
2022-11-12T20:53:59.393Z,8.80
2022-11-12T20:56:29.922Z,8.70
2022-11-12T20:58:57.867Z,8.70
2022-11-12T21:01:25.332Z,8.80
2022-11-12T21:03:52.402Z,8.80
2022-11-12T21:06:21.911Z,8.70
2022-11-12T21:08:49.018Z,8.80
2022-11-12T21:11:19.499Z,8.70
2022-11-12T21:13:46.352Z,8.70
2022-11-12T21:16:14.244Z,8.70
2022-11-12T21:18:41.548Z,8.70
2022-11-12T21:21:11.197Z,8.70
2022-11-12T21:23:40.060Z,8.70
2022-11-12T21:26:09.048Z,8.60
2022-11-12T21:28:38.143Z,8.60
2022-11-12T21:31:07.574Z,8.60
2022-11-12T21:33:34.341Z,8.50
2022-11-12T21:36:01.781Z,8.40
2022-11-12T21:38:29.480Z,8.50
2022-11-12T21:41:08.944Z,8.30
2022-11-12T21:43:37.285Z,8.20
2022-11-12T21:46:10.919Z,8.20
2022-11-12T21:48:37.546Z,8.10
2022-11-12T21:51:07.399Z,8.10
2022-11-12T21:53:34.358Z,8.10
2022-11-12T21:56:21.486Z,8.10
2022-11-12T21:58:48.129Z,8.10
2022-11-12T22:01:25.120Z,8.10
2022-11-12T22:03:53.266Z,8.10
2022-11-12T22:06:21.701Z,8.10
2022-11-12T22:08:51.423Z,8.10
2022-11-12T22:11:18.030Z,8.10
2022-11-12T22:13:45.054Z,8.10
2022-11-12T22:16:17.983Z,8.20
2022-11-12T22:18:47.078Z,8.10
2022-11-12T22:21:19.885Z,8.10
2022-11-12T22:23:46.639Z,8.10
2022-11-12T22:26:15.776Z,8.10
2022-11-12T22:28:42.953Z,8.00
2022-11-12T22:31:14.337Z,8.00
2022-11-12T22:33:41.703Z,8.10
2022-11-12T22:36:11.558Z,8.10
2022-11-12T22:38:40.479Z,8.10
2022-11-12T22:41:09.048Z,8.20
2022-11-12T22:43:38.683Z,8.20
2022-11-12T22:46:13.826Z,8.20
2022-11-12T22:48:40.976Z,8.20
2022-11-12T22:51:18.947Z,8.20
2022-11-12T22:53:46.098Z,8.20
2022-11-12T22:56:15.510Z,8.20
2022-11-12T22:58:44.398Z,8.20
2022-11-12T23:01:21.525Z,8.10
2022-11-12T23:03:49.482Z,8.00
2022-11-12T23:06:16.907Z,8.00
2022-11-12T23:08:43.769Z,8.00
2022-11-12T23:11:13.313Z,8.00
2022-11-12T23:13:40.098Z,7.90
2022-11-12T23:16:18.267Z,8.00
2022-11-12T23:18:45.332Z,7.90
2022-11-12T23:21:14.712Z,7.80
2022-11-12T23:23:41.650Z,7.80
2022-11-12T23:26:11.093Z,7.80
2022-11-12T23:28:38.207Z,7.70
2022-11-12T23:31:09.213Z,7.70
2022-11-12T23:33:35.792Z,7.60
2022-11-12T23:36:08.275Z,7.60
2022-11-12T23:38:35.093Z,7.60
2022-11-12T23:41:02.296Z,7.60
2022-11-12T23:43:29.204Z,7.50
2022-11-12T23:45:56.118Z,7.50
2022-11-12T23:48:23.014Z,7.50
2022-11-12T23:50:51.041Z,7.50
2022-11-12T23:53:18.284Z,7.50
2022-11-12T23:55:44.959Z,7.50
2022-11-12T23:58:11.549Z,7.50
